Pagina principale
METAR-TAF:

METAR-TAF

Aeroporti :

Monte Terminillo, Italia

latitudine: 42-28N, longitudine: 012-59E, altezza: 1874 m

Osservazione

Il bollettino è stato emesso 1 ora e 19 minuti fa, alle 04:55 UTC
Vento 3 kt da sud
Temperature 2°C
Umidità 21%
Pressione 1021 hPa

METAR: LIRK 200455Z AUTO 19003KT //// 02/M18 Q1021

Ora: 07:14 (06:14 UTC)


TAF: mancante

Osservazioni e previsioni meteorologiche di più di 4000 aeroporti (messaggi METAR e TAF).

Le stazioni disponibili sono rappresentate dai dischi gialli e rossi sulla carta.

Puntare il mouse per vedere il nome della stazione.

Clicca sopra per visualizzare le osservazioni e previsioni meteorologiche.

Per cambiare la mappa : fare clic sui pulsanti verdi con una croce nera per ingrandire, il pulsante verde con un trattino per diminuire, o sulla freccia verde per le mappe adiacenti.


METAR-TAF: